Terminal Aerodrome Forecast
Issued by NWS Knoxville/Tri Cities, TN

Home | Current Version | Previous Version | Text Only | Print | Product List | Glossary On
Versions: 1 2 3 4 5 6 7 8 9 10 11 12 13 14 15 16 17 18 19 20 21 22 23 24 25 26 27 28 29 30 31 32 33 34 35 36 37 38 39 40 41
000
FTUS44 KMRX 042330
TAFTRI
TAF
KTRI 042330Z 0500/0524 34008KT 6SM -RA SCT030 BKN050
     FM050200 35010KT 4SM -SHRA BR SCT015 OVC025
     FM050800 28008KT 2SM -RAPL BR BKN008
     FM051200 33008KT 2SM -SN OVC006
     FM051900 32010KT 4SM -SHSN OVC015=

USA.gov is the U.S. government's official web portal to all federal, state and local government web resources and services.